Wilmot, SD (57279)

2:42 AM CST on December 06, 2016 (GMT -0600)
Linden Beach | | Change Station
Active Advisory: High Wind Warning Active Notice: Local Storm Report

Elev 974 ft 45.41 °N, 96.65 °W | Updated 10 seconds ago

Overcast
Overcast
19.9 °F
Feels Like 10 °F
N
8.1
Wind Variable Wind from North
Gusts 9.8 mph

Today
High -- | Low -- °F
--% Chance of Precip.
Yesterday
High -- | Low -- °F
Precip. -- in
Pressure 29.70 in
Visibility 10.0 miles
Clouds Overcast 2700 ft
Windchill 10 °F
Dew Point -13 °F
Humidity 22%
Rainfall 0.00 in
Snow Depth Not available.
7:52 AM 4:44 PM
Waxing Crescent, 39% visible
METAR KVVV 060834Z AUTO 25013G20KT 10SM OVC027 M07/M12 A2970 RMK AO2
Pressure 29.70 in
Visibility 10.0 miles
Clouds Overcast 2700 ft
Windchill 10 °F
Dew Point -13 °F
Humidity 22%
Rainfall 0.00 in
Snow Depth Not available.
7:52 AM 4:44 PM
Waxing Crescent, 39% visible
METAR KVVV 060834Z AUTO 25013G20KT 10SM OVC027 M07/M12 A2970 RMK AO2

10-Day Weather Forecast

Almanac

Astronomy

Dec. 06, 2016 Rise Set
Actual Time
Civil Twilight
Nautical Twilight
Astronomical Twilight
Moon
Length of Visible Light
Length of Day
Tomorrow will be .
, % of the Moon is Illuminated

Today's Extremes

State Highs State Lows

Community

WunderPhotos

Upload Photos

1,955,935 photos uploaded!

WunderBlog® & News

Nearby

Air Quality

  Air Quality AQ Index Pollutant
Not available.

Snow Depth

Station Depth Elevation

Earthquake Activity

City Distance Mag. Time & Date
Minimum magnitude displayed is 2.5.

Coastal Water Temperatures

Place Temperature

Stations

Nearby Weather Stations

Station Location Temp. Windchill Dew Point Humidity Wind Precip. Elev Updated Type
                   

Watches & Warnings

High Wind Warning
Issued: 2:17 AM CST Dec. 6, 2016 – National Weather Service

... High Wind Warning in effect until 6 am CST early this
morning...

The National Weather Service in Aberdeen has issued a High Wind
Warning... which is in effect until 6 am CST early this morning.
The Wind Advisory is no longer in effect.

* Timing... through the wee hours of this morning.

* Winds... sustained 30 to 50 mph with gusts between 50 and 75
mph. Mainly along I-29 between Summit and Peever.

* Impacts... the strong winds will cause hazardous travel
conditions to high profile vehicles through the overnight
hours... especially along I-29 from Summit to Peever.

Precautionary/preparedness actions...

A High Wind Warning means a hazardous high wind event is expected
or occurring. Sustained wind speeds of at least 40 mph or gusts
of 58 mph or more can lead to property damage.